Kralendijk, Bonaire, Dutch Antilles Cruise Port

Bonaire has consistently been ranked as the finest snorkeling and scuba diving destination in the Caribbean for two decades. This is because of the island's diligent stewardship of its marine resources. Since 1979, all the waters of Bonaire's coast have been legally protected.

Besides snorkeling and scuba diving, there is plenty more to be done here. Bonaire has trade winds that are usually steady and wash over the island. This creates ideal conditions for windsurfing. The sere beauty of this semi-desert landscape is home to an assortment of wildlife. Atop the rock formations of Washington Slagbaai you can find iguanas toasting themselves, while they watch a vast cloud of orange-pink flamingoes drift across the bone-white salt flats. The divi-divi trees bending into the surreal sculptures of the wind, and towering cacti represent the Caribbean's diverse ecology.

Another great thing about Bonaire is that it has a yearly average temperature of 82 degrees F (27.8 degrees C) with an average water temperature of 80 degrees F (26.7 degrees C). All year, Bonaire is not likely to see more than 22 inches (56 cm) of rain. This can be attributed to its nearly constant humidity of 76% and year round sunny forecast.

Cruise Deals Including Bonaire

Date Ship Nts Destination Inside Oceanview Balcony Suite Per Night
2020-09-20 Freedom Of The Seas 7 Southern Caribbean $ 473 pp $ 725 pp $ 932 pp $ 1333 pp $ 68 pp/pd
2020-09-25 Equinox 10 Southern Caribbean $ 1911 pp $ 2031 pp $ 2201 pp $ 4211 pp $ 156 pp/pd
2020-10-04 Freedom Of The Seas 7 Southern Caribbean $ 478 pp $ 728 pp $ 928 pp $ 1498 pp $ 68 pp/pd
2020-10-16 Breakaway 14 Caribbean $ 1399 pp $ 1699 pp $ 1999 pp $ 2399 pp $ 100 pp/pd
2020-10-17 Summit 12 Repositioning $ 1943 pp $ 2133 pp $ 2484 pp $ 8379 pp $ 123 pp/pd
2020-10-18 Freedom Of The Seas 7 Southern Caribbean $ 487 pp $ 746 pp $ 973 pp $ 1437 pp $ 70 pp/pd
2020-10-30 Seven Seas Navigator 16 Bermuda N/A N/A N/A $ 8599 pp $ 537 pp/pd
2020-11-01 Freedom Of The Seas 7 Southern Caribbean $ 487 pp $ 777 pp $ 993 pp $ 1498 pp $ 70 pp/pd
2020-11-02 Reflection 11 Southern Caribbean $ 2619 pp $ 2619 pp $ 2849 pp $ 5649 pp $ 194 pp/pd
2020-11-06 Equinox 9 Southern Caribbean $ 2135 pp $ 2115 pp $ 2575 pp $ 5774 pp $ 200 pp/pd
2020-11-09 Breakaway 13 Caribbean $ 1219 pp $ 1459 pp $ 1789 pp $ 2189 pp $ 94 pp/pd
2020-11-11 Sun 10 Caribbean $ 889 pp $ 1039 pp $ 1619 pp $ 2239 pp $ 89 pp/pd
2020-11-13 Edge 9 Southern Caribbean N/A N/A $ 2920 pp $ 16420 pp $ 287 pp/pd
2020-11-15 Freedom Of The Seas 7 Southern Caribbean $ 475 pp $ 811 pp $ 1041 pp $ 1524 pp $ 68 pp/pd
2020-11-20 Explorer Of The Seas 9 Southern Caribbean $ 1148 pp $ 1298 pp $ 1598 pp $ 2578 pp $ 128 pp/pd
2020-11-21 Constellation 11 Southern Caribbean $ 2241 pp $ 2587 pp $ 2875 pp $ 12699 pp $ 167 pp/pd
2020-11-22 Nieuw Statendam 21 Southern Caribbean $ 2189 pp $ 2659 pp $ 3329 pp $ 4559 pp $ 104 pp/pd
2020-11-29 Freedom Of The Seas 7 Southern Caribbean $ 480 pp $ 777 pp $ 983 pp $ 1313 pp $ 69 pp/pd
2020-11-30 Sky Princess 20 Caribbean $ 2239 pp $ 3199 pp $ 2878 pp $ 4729 pp $ 112 pp/pd
2020-12-02 Nieuw Statendam 21 Southern Caribbean $ 1999 pp $ 2469 pp $ 3039 pp $ 4559 pp $ 95 pp/pd
2020-12-04 Explorer Of The Seas 9 Southern Caribbean $ 798 pp $ 999 pp $ 1349 pp $ 2173 pp $ 89 pp/pd
2020-12-05 Summit 7 Southern Caribbean $ 1794 pp $ 1924 pp $ 2314 pp $ 8079 pp $ 221 pp/pd
2020-12-06 Epic 7 Caribbean $ 549 pp N/A $ 919 pp $ 1069 pp $ 78 pp/pd
2020-12-09 Sun 10 Caribbean $ 939 pp $ 1039 pp $ 1519 pp $ 2189 pp $ 94 pp/pd
2020-12-10 Sky Princess 10 Southern Caribbean $ 1149 pp N/A $ 1439 pp $ 2329 pp $ 115 pp/pd
2020-12-13 Freedom Of The Seas 7 Southern Caribbean $ 517 pp $ 831 pp $ 1041 pp $ 1598 pp $ 74 pp/pd
2020-12-18 Explorer Of The Seas 9 Southern Caribbean $ 1048 pp $ 1248 pp $ 1547 pp $ 2343 pp $ 116 pp/pd
2020-12-20 Island Princess 14 Caribbean $ 1819 pp $ 2011 pp $ 2839 pp $ 3289 pp $ 130 pp/pd
2020-12-26 Horizon 8 Southern Caribbean $ 1199 pp $ 1389 pp $ 1829 pp $ 3203 pp $ 150 pp/pd
2020-12-27 Freedom Of The Seas 7 Southern Caribbean $ 1041 pp $ 1252 pp $ 1566 pp $ 2197 pp $ 149 pp/pd
2020-12-28 Sky Princess 8 Caribbean $ 1099 pp $ 1799 pp $ 1619 pp $ 2399 pp $ 137 pp/pd
2021-01-01 Explorer Of The Seas 9 Southern Caribbean $ 798 pp $ 967 pp $ 1298 pp $ 2261 pp $ 89 pp/pd
2021-01-03 Getaway 11 Caribbean $ 859 pp $ 1019 pp $ 1449 pp $ 1669 pp $ 78 pp/pd
2021-01-04 Constellation 11 Southern Caribbean $ 1929 pp $ 2147 pp $ 2629 pp $ 6699 pp $ 140 pp/pd
2021-01-05 Seven Seas Mariner 51 Transatlantic N/A N/A N/A $ 32999 pp $ 647 pp/pd
2021-01-06 Nieuw Statendam 21 Southern Caribbean $ 2899 pp $ 3649 pp $ 3899 pp $ 5999 pp $ 138 pp/pd
2021-01-09 Horizon 8 Southern Caribbean $ 734 pp $ 904 pp $ 1159 pp $ 1817 pp $ 92 pp/pd
2021-01-10 Freedom Of The Seas 7 Southern Caribbean $ 567 pp $ 769 pp $ 998 pp $ 1399 pp $ 81 pp/pd
2021-01-11 Pearl 10 Caribbean $ 859 pp $ 1019 pp $ 1759 pp $ 2219 pp $ 86 pp/pd
2021-01-13 Riviera 66 World Cruise $ 13899 pp $ 16349 pp $ 19349 pp $ 26999 pp $ 211 pp/pd
2021-01-14 Seven Seas Splendor 12 Eastern Caribbean N/A N/A N/A $ 19199 pp $ 1600 pp/pd
2021-01-15 Explorer Of The Seas 9 Southern Caribbean $ 779 pp $ 967 pp $ 1298 pp $ 2558 pp $ 87 pp/pd
2021-01-17 Nieuw Statendam 14 Southern Caribbean $ 1899 pp $ 2299 pp $ 2549 pp $ 3899 pp $ 136 pp/pd
2021-01-19 Sky Princess 20 Caribbean $ 2229 pp N/A $ 3649 pp $ 5199 pp $ 111 pp/pd
2021-01-23 Rhapsody Of The Seas 10 Western Caribbean $ 744 pp $ 829 pp N/A $ 2394 pp $ 74 pp/pd
2021-01-24 Freedom Of The Seas 7 Southern Caribbean $ 588 pp $ 758 pp $ 959 pp $ 1428 pp $ 84 pp/pd
2021-01-25 Reflection 11 Southern Caribbean $ 2719 pp $ 2819 pp $ 2989 pp $ 5599 pp $ 212 pp/pd
2021-01-29 Explorer Of The Seas 9 Southern Caribbean $ 779 pp $ 968 pp $ 1288 pp $ 2058 pp $ 87 pp/pd
2021-01-31 Epic 7 Caribbean $ 449 pp N/A $ 849 pp $ 989 pp $ 64 pp/pd
2021-02-01 Encore 12 Panama Canal $ 1019 pp $ 1569 pp $ 2299 pp $ 2919 pp $ 85 pp/pd
2021-02-07 Epic 7 Caribbean $ 499 pp N/A $ 819 pp $ 1009 pp $ 71 pp/pd
2021-02-08 Sky Princess 20 Caribbean $ 2229 pp N/A $ 3238 pp $ 5299 pp $ 111 pp/pd
2021-02-12 Explorer Of The Seas 9 Southern Caribbean $ 798 pp $ 998 pp $ 1318 pp $ 2518 pp $ 89 pp/pd
2021-02-14 Epic 7 Caribbean $ 499 pp N/A $ 919 pp $ 1259 pp $ 71 pp/pd
2021-02-15 Constellation 11 Southern Caribbean $ 2013 pp $ 2198 pp $ 2947 pp $ 4779 pp $ 146 pp/pd
2021-02-16 Riviera 22 World Cruise $ 4449 pp $ 5799 pp $ 6649 pp $ 9399 pp $ 202 pp/pd
2021-02-17 Nieuw Statendam 21 Southern Caribbean $ 2999 pp $ 3799 pp $ 4099 pp $ 6299 pp $ 143 pp/pd
2021-02-18 Sky Princess 20 Caribbean $ 2229 pp $ 3379 pp $ 3040 pp $ 5199 pp $ 111 pp/pd
2021-02-19 Equinox 9 Southern Caribbean $ 2305 pp $ 2305 pp $ 2555 pp $ 5474 pp $ 210 pp/pd
2021-02-21 Freedom Of The Seas 7 Southern Caribbean $ 578 pp $ 728 pp $ 979 pp $ 2575 pp $ 83 pp/pd
2021-02-26 Explorer Of The Seas 9 Southern Caribbean $ 748 pp $ 898 pp $ 1198 pp $ 1967 pp $ 83 pp/pd
2021-02-27 Summit 7 Southern Caribbean $ 1744 pp $ 2074 pp $ 2264 pp $ 4699 pp $ 214 pp/pd
2021-02-28 Sky Princess 20 Caribbean $ 2199 pp N/A $ 3010 pp $ 4549 pp $ 110 pp/pd
2021-03-07 Epic 7 Caribbean $ 479 pp N/A $ 919 pp $ 1109 pp $ 68 pp/pd
2021-03-08 Reflection 11 Southern Caribbean $ 2589 pp $ 2589 pp $ 3029 pp $ 5336 pp $ 200 pp/pd
2021-03-10 Sky Princess 20 Caribbean $ 2199 pp $ 3299 pp $ 3099 pp $ 4099 pp $ 110 pp/pd
2021-03-12 Equinox 9 Southern Caribbean $ 2005 pp $ 2105 pp $ 2245 pp $ 9674 pp $ 177 pp/pd
2021-03-14 Epic 7 Caribbean $ 479 pp N/A $ 969 pp $ 1339 pp $ 68 pp/pd
2021-03-20 Sky Princess 20 Caribbean $ 2199 pp N/A $ 3099 pp $ 4099 pp $ 110 pp/pd
2021-03-21 Freedom Of The Seas 7 Southern Caribbean $ 539 pp $ 749 pp $ 959 pp $ 1899 pp $ 77 pp/pd
2021-03-26 Explorer Of The Seas 9 Southern Caribbean $ 768 pp $ 948 pp $ 1338 pp $ 2474 pp $ 85 pp/pd
2021-03-27 Summit 7 Southern Caribbean $ 1794 pp $ 2104 pp $ 2264 pp $ 4469 pp $ 221 pp/pd
2021-03-28 Epic 7 Caribbean $ 499 pp N/A $ 969 pp $ 1309 pp $ 71 pp/pd
2021-04-02 Equinox 9 Southern Caribbean $ 1785 pp $ 2135 pp $ 2505 pp $ 11474 pp $ 160 pp/pd
2021-04-03 Seabourn Odyssey 21 Southern Caribbean N/A $ 9999 pp N/A $ 9999 pp $ 476 pp/pd
2021-04-04 Explorer Of The Seas 9 Eastern Caribbean $ 777 pp $ 948 pp $ 1298 pp $ 2397 pp $ 86 pp/pd
2021-04-10 Seabourn Odyssey 14 Southern Caribbean N/A $ 6999 pp N/A $ 6999 pp $ 500 pp/pd
2021-04-11 Jade 11 Caribbean $ 909 pp $ 1109 pp $ 2099 pp $ 2459 pp $ 83 pp/pd
2021-04-17 Horizon 8 Southern Caribbean $ 679 pp $ 889 pp $ 1229 pp $ 1876 pp $ 85 pp/pd
2021-04-18 Freedom Of The Seas 7 Southern Caribbean $ 549 pp $ 699 pp $ 898 pp N/A $ 78 pp/pd
2021-04-23 Breakaway 9 Caribbean $ 1079 pp $ 1429 pp $ 1929 pp $ 2199 pp $ 120 pp/pd
2021-04-24 Summit 7 Southern Caribbean $ 1794 pp $ 2024 pp $ 2214 pp $ 3549 pp $ 221 pp/pd
2021-04-27 Seven Seas Navigator 14 Eastern Caribbean N/A N/A N/A $ 5999 pp $ 429 pp/pd
2021-05-01 Horizon 8 Southern Caribbean $ 649 pp $ 879 pp $ 1199 pp $ 1786 pp $ 81 pp/pd
2021-05-14 Breakaway 9 Caribbean $ 1109 pp $ 1429 pp $ 1909 pp $ 2149 pp $ 123 pp/pd
2021-05-16 Seven Seas Navigator 15 Eastern Caribbean N/A N/A N/A $ 4949 pp $ 330 pp/pd
2021-05-29 Horizon 8 Southern Caribbean $ 859 pp $ 1079 pp $ 1379 pp $ 2526 pp $ 107 pp/pd
2021-06-12 Horizon 8 Southern Caribbean $ 949 pp $ 1189 pp $ 1579 pp $ 2369 pp $ 119 pp/pd
2021-07-10 Horizon 8 Southern Caribbean $ 959 pp $ 1204 pp $ 1589 pp $ 2729 pp $ 120 pp/pd
2021-08-07 Horizon 8 Southern Caribbean $ 849 pp $ 1049 pp $ 1389 pp $ 2129 pp $ 106 pp/pd
2021-08-27 Equinox 9 Southern Caribbean $ 1749 pp $ 1849 pp $ 1989 pp $ 9699 pp $ 155 pp/pd
2021-08-30 Brilliance Of The Seas 13 Repositioning $ 749 pp $ 898 pp $ 1169 pp $ 3274 pp $ 58 pp/pd
2021-09-04 Horizon 8 Southern Caribbean $ 639 pp $ 809 pp $ 1059 pp $ 1801 pp $ 80 pp/pd
2021-09-17 Equinox 9 Southern Caribbean $ 1839 pp $ 1829 pp $ 2249 pp $ 8949 pp $ 163 pp/pd
2021-09-18 Horizon 8 Southern Caribbean $ 639 pp $ 809 pp $ 1059 pp $ 1756 pp $ 80 pp/pd
2021-10-02 Horizon 8 Southern Caribbean $ 599 pp $ 779 pp $ 1019 pp $ 1681 pp $ 75 pp/pd
2021-10-08 Equinox 9 Southern Caribbean $ 1829 pp $ 1879 pp $ 2299 pp $ 9899 pp $ 158 pp/pd
2021-10-15 Sirena 27 World Cruise $ 3599 pp $ 4099 pp $ 5649 pp $ 8449 pp $ 133 pp/pd
2021-10-19 Joy 11 Caribbean $ 1149 pp $ 1599 pp $ 1979 pp $ 2399 pp $ 104 pp/pd
2021-10-23 Summit 7 Southern Caribbean $ 1589 pp $ 1689 pp $ 1779 pp $ 6669 pp $ 189 pp/pd
2021-10-29 Equinox 9 Southern Caribbean $ 1829 pp $ 1879 pp $ 2299 pp $ 9649 pp $ 158 pp/pd
2021-10-30 Sirena 12 Caribbean $ 1699 pp $ 1999 pp $ 2849 pp $ 3949 pp $ 142 pp/pd
2021-11-02 Sky 9 Panama Canal $ 1179 pp $ 1479 pp $ 2049 pp $ 4649 pp $ 131 pp/pd
2021-11-06 Summit 7 Southern Caribbean $ 1589 pp $ 1689 pp $ 1779 pp $ 6669 pp $ 189 pp/pd
2021-11-07 Brilliance Of The Seas 11 Repositioning $ 799 pp $ 949 pp $ 1599 pp $ 2999 pp $ 73 pp/pd
2021-11-11 Sky 9 Panama Canal $ 1179 pp $ 1479 pp $ 2049 pp $ 3949 pp $ 131 pp/pd
2021-11-12 Explorer Of The Seas 9 Western Caribbean $ 798 pp $ 998 pp $ 1248 pp $ 1998 pp $ 89 pp/pd
2021-11-19 Equinox 9 Southern Caribbean $ 1839 pp $ 1989 pp $ 2289 pp $ 4149 pp $ 167 pp/pd
2021-11-20 Sky 9 Panama Canal $ 1179 pp $ 1479 pp $ 2049 pp $ 4099 pp $ 131 pp/pd
2021-11-22 Edge 11 Transcanal $ 2519 pp $ 2739 pp $ 3009 pp $ 15999 pp $ 191 pp/pd
2021-11-26 Explorer Of The Seas 9 Western Caribbean $ 798 pp $ 998 pp $ 1248 pp $ 1998 pp $ 89 pp/pd
2021-11-27 Horizon 8 Southern Caribbean $ 589 pp $ 759 pp $ 1009 pp $ 1669 pp $ 74 pp/pd
2021-11-28 Freedom Of The Seas 7 Southern Caribbean $ 699 pp $ 798 pp $ 1038 pp $ 1759 pp $ 100 pp/pd
2021-11-29 Sky 9 Panama Canal $ 1129 pp $ 1429 pp $ 1999 pp $ 3949 pp $ 125 pp/pd
2021-12-04 Summit 7 Southern Caribbean $ 1539 pp $ 1639 pp $ 1729 pp $ 6619 pp $ 182 pp/pd
2021-12-06 Sunshine 10 Southern Caribbean $ 679 pp $ 959 pp $ 1339 pp $ 2439 pp $ 68 pp/pd
2021-12-08 Sky 9 Panama Canal $ 1179 pp $ 1629 pp $ 2299 pp $ 4649 pp $ 131 pp/pd
2021-12-10 Explorer Of The Seas 9 Western Caribbean $ 798 pp $ 998 pp $ 1248 pp $ 1998 pp $ 89 pp/pd
2021-12-13 Discovery Princess 16 Caribbean $ 2279 pp N/A $ 2947 pp $ 3869 pp $ 142 pp/pd
2021-12-21 Discovery Princess 16 Caribbean $ 2659 pp N/A $ 3569 pp $ 4569 pp $ 166 pp/pd
2021-12-23 Riviera 12 Caribbean $ 2449 pp $ 3349 pp $ 3899 pp $ 5949 pp $ 204 pp/pd
2021-12-24 Explorer Of The Seas 9 Western Caribbean $ 1298 pp $ 1628 pp $ 2038 pp $ 3268 pp $ 144 pp/pd
2021-12-26 Sunrise 8 Southern Caribbean $ 889 pp $ 1089 pp $ 1439 pp $ 2009 pp $ 111 pp/pd
2021-12-27 Getaway 9 Caribbean $ 1599 pp $ 1949 pp $ 2299 pp $ 2619 pp $ 178 pp/pd
2022-01-03 Constellation 11 Southern Caribbean $ 2099 pp $ 2349 pp $ 3099 pp $ 12849 pp $ 151 pp/pd
2022-01-04 Riviera 73 World Cruise $ 14399 pp $ 18449 pp $ 20949 pp $ 29499 pp $ 197 pp/pd
2022-01-05 Getaway 9 Caribbean $ 799 pp $ 1149 pp $ 1549 pp $ 1769 pp $ 89 pp/pd
2022-01-07 Explorer Of The Seas 9 Western Caribbean $ 848 pp $ 1068 pp $ 1338 pp $ 2148 pp $ 94 pp/pd
2022-01-08 Horizon 8 Southern Caribbean $ 599 pp $ 799 pp $ 1119 pp $ 1881 pp $ 75 pp/pd
2022-01-15 Summit 7 Southern Caribbean $ 1569 pp $ 1699 pp $ 1769 pp $ 4719 pp $ 189 pp/pd
2022-01-16 Epic 7 Caribbean $ 799 pp N/A $ 1249 pp $ 1359 pp $ 114 pp/pd
2022-01-19 Getaway 9 Caribbean $ 849 pp $ 1199 pp $ 1549 pp $ 1819 pp $ 94 pp/pd
2022-01-21 Explorer Of The Seas 9 Western Caribbean $ 848 pp $ 1068 pp $ 1338 pp $ 2198 pp $ 94 pp/pd
2022-01-22 Horizon 8 Southern Caribbean $ 619 pp $ 839 pp $ 1199 pp $ 1961 pp $ 77 pp/pd
2022-01-23 Freedom Of The Seas 7 Southern Caribbean $ 758 pp $ 919 pp $ 1099 pp $ 2058 pp $ 108 pp/pd
2022-01-24 Edge 11 Southern Caribbean $ 2239 pp $ 2329 pp $ 2529 pp $ 9899 pp $ 162 pp/pd
2022-01-29 Summit 7 Southern Caribbean $ 1589 pp $ 1689 pp $ 1779 pp $ 6719 pp $ 189 pp/pd
2022-01-30 Jewel 11 Panama Canal $ 1299 pp $ 1599 pp $ 2299 pp $ 2749 pp $ 118 pp/pd
2022-02-02 Getaway 9 Caribbean $ 849 pp $ 1199 pp $ 1649 pp $ 1819 pp $ 94 pp/pd
2022-02-03 Seven Seas Splendor 14 Eastern Caribbean N/A N/A N/A $ 7799 pp $ 557 pp/pd
2022-02-05 Silver Spirit 9 Caribbean N/A N/A N/A $ 3780 pp $ 420 pp/pd
2022-02-07 Riviera 12 Caribbean $ 2899 pp $ 3599 pp $ 4199 pp $ 5599 pp $ 242 pp/pd
2022-02-09 Dawn 11 Caribbean $ 999 pp $ 1399 pp $ 2049 pp $ 2449 pp $ 91 pp/pd
2022-02-11 Sirena 12 Caribbean $ 2699 pp $ 3049 pp $ 4249 pp $ 5599 pp $ 225 pp/pd
2022-02-12 Freedom 8 Southern Caribbean $ 609 pp $ 759 pp $ 1049 pp $ 1569 pp $ 76 pp/pd
2022-02-14 Edge 11 Transcanal $ 2424 pp $ 2584 pp $ 2739 pp $ 5449 pp $ 177 pp/pd
2022-02-18 Explorer Of The Seas 9 Western Caribbean $ 848 pp $ 1068 pp $ 1338 pp $ 2148 pp $ 94 pp/pd
2022-02-19 Horizon 8 Southern Caribbean $ 649 pp $ 849 pp $ 1209 pp $ 1961 pp $ 81 pp/pd
2022-02-20 Freedom Of The Seas 7 Southern Caribbean $ 849 pp $ 1019 pp $ 1229 pp $ 2228 pp $ 121 pp/pd
2022-02-21 Jewel 9 Panama Canal $ 1049 pp $ 1349 pp $ 1899 pp $ 2269 pp $ 117 pp/pd
2022-02-26 Summit 7 Southern Caribbean $ 1589 pp $ 1689 pp $ 1779 pp $ 6719 pp $ 189 pp/pd
2022-02-27 Epic 7 Caribbean $ 879 pp N/A $ 1319 pp $ 1439 pp $ 126 pp/pd
2022-03-02 Jewel 8 Panama Canal $ 999 pp $ 1299 pp $ 1779 pp $ 2109 pp $ 125 pp/pd
2022-03-04 Explorer Of The Seas 9 Western Caribbean $ 848 pp $ 1068 pp $ 1338 pp $ 2148 pp $ 94 pp/pd
2022-03-05 Sirena 12 Caribbean $ 2199 pp $ 2349 pp $ 3249 pp $ 4399 pp $ 183 pp/pd
2022-03-07 Edge 11 Southern Caribbean $ 2109 pp $ 2419 pp $ 2419 pp $ 48999 pp $ 157 pp/pd
2022-03-12 Summit 7 Southern Caribbean $ 1639 pp $ 1739 pp $ 1829 pp $ 6769 pp $ 196 pp/pd
2022-03-13 Epic 7 Caribbean $ 899 pp N/A $ 1349 pp $ 1459 pp $ 128 pp/pd
2022-03-18 Explorer Of The Seas 9 Western Caribbean $ 848 pp $ 1068 pp $ 1338 pp $ 2148 pp $ 94 pp/pd
2022-03-25 Equinox 9 Southern Caribbean $ 1899 pp $ 2179 pp $ 2559 pp $ 13544 pp $ 169 pp/pd
2022-03-28 Edge 11 Transcanal $ 2389 pp $ 2589 pp $ 2819 pp $ 15009 pp $ 178 pp/pd
2022-03-29 Sirena 21 World Cruise $ 2799 pp $ 3149 pp $ 4699 pp $ 6649 pp $ 133 pp/pd
2022-04-01 Explorer Of The Seas 9 Western Caribbean $ 848 pp $ 1068 pp $ 1338 pp $ 2148 pp $ 94 pp/pd
2022-04-09 Summit 7 Southern Caribbean $ 1679 pp $ 1809 pp $ 1989 pp $ 7269 pp $ 203 pp/pd
2022-04-15 Explorer Of The Seas 9 Western Caribbean $ 898 pp $ 1128 pp $ 1418 pp $ 2278 pp $ 100 pp/pd
2022-04-17 Freedom Of The Seas 7 Southern Caribbean $ 898 pp $ 1049 pp $ 1309 pp $ 2328 pp $ 128 pp/pd
2022-04-23 Summit 7 Southern Caribbean $ 1389 pp $ 1389 pp $ 1669 pp $ 6819 pp $ 161 pp/pd
2022-04-30 Horizon 8 Southern Caribbean $ 689 pp $ 889 pp $ 1219 pp $ 1981 pp $ 86 pp/pd
2022-06-06 Crystal Esprit 7 Mediterranean N/A N/A N/A $ 8087 pp $ 1155 pp/pd
?>